createdAt,value
2023-01-03T00:01:48.046Z,1.12
2023-01-03T00:04:17.122Z,1.05
2023-01-03T00:06:50.455Z,1.05
2023-01-03T00:09:21.490Z,1.07
2023-01-03T00:12:09.644Z,1.07
2023-01-03T00:14:38.443Z,1.32
2023-01-03T00:17:07.086Z,1.13
2023-01-03T00:19:37.460Z,1.10
2023-01-03T00:22:05.275Z,1.12
2023-01-03T00:24:32.968Z,1.14
2023-01-03T00:27:00.939Z,1.26
2023-01-03T00:29:28.754Z,1.25
2023-01-03T00:31:56.923Z,1.30
2023-01-03T00:34:24.473Z,1.28
2023-01-03T00:36:52.243Z,1.28
2023-01-03T00:39:19.882Z,1.27
2023-01-03T00:41:47.542Z,1.24
2023-01-03T00:44:15.136Z,1.20
2023-01-03T00:46:42.827Z,1.21
2023-01-03T00:49:10.734Z,1.19
2023-01-03T00:51:40.477Z,1.29
2023-01-03T00:54:09.142Z,1.24
2023-01-03T00:56:39.815Z,1.27
2023-01-03T00:59:08.516Z,1.34
2023-01-03T01:01:45.800Z,1.36
2023-01-03T01:04:14.493Z,1.48
2023-01-03T01:06:45.246Z,1.52
2023-01-03T01:09:22.768Z,1.59
2023-01-03T01:11:51.265Z,1.54
2023-01-03T01:14:22.356Z,1.49
2023-01-03T01:16:57.277Z,1.54
2023-01-03T01:19:29.751Z,1.52
2023-01-03T01:21:57.721Z,1.61
2023-01-03T01:24:25.647Z,1.52
2023-01-03T01:26:53.897Z,1.57
2023-01-03T01:29:22.061Z,1.52
2023-01-03T01:31:49.965Z,1.55
2023-01-03T01:34:17.833Z,1.55
2023-01-03T01:36:46.578Z,1.51
2023-01-03T01:39:17.026Z,1.54
2023-01-03T01:42:04.641Z,1.57
2023-01-03T01:45:13.170Z,1.73
2023-01-03T01:47:46.461Z,1.63
2023-01-03T01:50:30.802Z,1.63
2023-01-03T01:53:02.288Z,1.60
2023-01-03T01:55:39.174Z,1.62
2023-01-03T01:58:08.733Z,1.56
2023-01-03T02:00:37.570Z,1.61
2023-01-03T02:03:05.462Z,1.65
2023-01-03T02:05:35.330Z,1.66
2023-01-03T02:08:03.977Z,1.65
2023-01-03T02:11:02.150Z,1.74
2023-01-03T02:13:49.100Z,1.72
2023-01-03T02:16:46.126Z,1.68
2023-01-03T02:19:40.775Z,1.80
2023-01-03T02:22:32.982Z,1.87
2023-01-03T02:25:28.791Z,1.88
2023-01-03T02:28:13.140Z,1.91
2023-01-03T02:30:51.866Z,1.85
2023-01-03T02:33:25.189Z,1.77
2023-01-03T02:36:20.915Z,1.77
2023-01-03T02:38:56.671Z,1.64
2023-01-03T02:41:46.008Z,1.66
2023-01-03T02:44:19.358Z,1.54
2023-01-03T02:46:55.367Z,1.42
2023-01-03T02:49:51.607Z,1.52
2023-01-03T02:52:24.526Z,1.39
2023-01-03T02:54:58.768Z,1.35
2023-01-03T02:57:44.919Z,1.39
2023-01-03T03:00:16.707Z,1.29
2023-01-03T03:02:51.995Z,1.17
2023-01-03T03:05:31.706Z,1.16
2023-01-03T03:07:59.874Z,1.05
2023-01-03T03:10:46.838Z,0.95
2023-01-03T03:13:31.604Z,0.97
2023-01-03T03:16:09.989Z,0.91
2023-01-03T03:18:59.488Z,0.95
2023-01-03T03:21:52.383Z,0.98
2023-01-03T03:24:47.013Z,1.05
2023-01-03T03:27:36.841Z,0.99
2023-01-03T03:30:07.775Z,0.99
2023-01-03T03:32:36.581Z,0.98
2023-01-03T03:35:09.109Z,0.93
2023-01-03T03:37:40.310Z,0.86
2023-01-03T03:40:27.580Z,0.86
2023-01-03T03:43:29.736Z,0.92
2023-01-03T03:46:21.996Z,0.98
2023-01-03T03:49:21.582Z,0.93
2023-01-03T03:51:51.209Z,0.89
2023-01-03T03:54:22.585Z,0.86
2023-01-03T03:56:56.739Z,0.73
2023-01-03T03:59:27.554Z,0.68
2023-01-03T04:01:58.485Z,0.70
2023-01-03T04:04:33.125Z,0.69
2023-01-03T04:07:02.438Z,0.65
2023-01-03T04:09:30.171Z,0.62
2023-01-03T04:11:57.665Z,0.54
2023-01-03T04:14:25.278Z,0.54
2023-01-03T04:16:52.955Z,0.60
2023-01-03T04:19:20.645Z,0.65
2023-01-03T04:21:48.228Z,0.67
2023-01-03T04:24:15.891Z,0.69
2023-01-03T04:26:43.358Z,0.68
2023-01-03T04:29:10.886Z,0.74
2023-01-03T04:31:38.407Z,0.64
2023-01-03T04:34:06.081Z,0.53
2023-01-03T04:36:33.569Z,0.52
2023-01-03T04:39:01.072Z,0.51
2023-01-03T04:41:28.772Z,0.45
2023-01-03T04:44:02.477Z,0.48
2023-01-03T04:46:35.190Z,0.50
2023-01-03T04:49:03.327Z,0.40
2023-01-03T04:51:31.468Z,0.39
2023-01-03T04:54:17.805Z,0.34
2023-01-03T04:56:45.320Z,0.32
2023-01-03T04:59:12.737Z,0.34
2023-01-03T05:01:40.416Z,0.33
2023-01-03T05:04:08.734Z,0.24
2023-01-03T05:06:36.270Z,0.10
2023-01-03T05:09:03.828Z,0.05
2023-01-03T05:11:31.339Z,0.07
2023-01-03T05:13:58.773Z,0.09
2023-01-03T05:16:26.450Z,0.07
2023-01-03T05:18:53.910Z,0.15
2023-01-03T05:21:41.025Z,0.13
2023-01-03T05:24:31.034Z,0.13
2023-01-03T05:27:01.909Z,0.04
2023-01-03T05:29:30.961Z,0.06
2023-01-03T05:31:58.497Z,-0.04
2023-01-03T05:34:26.097Z,-0.07
2023-01-03T05:36:53.603Z,0.00
2023-01-03T05:39:21.196Z,0.04
2023-01-03T05:42:01.044Z,0.10
2023-01-03T05:44:33.710Z,0.13
2023-01-03T05:47:03.995Z,0.16
2023-01-03T05:49:31.643Z,0.26
2023-01-03T05:51:59.167Z,0.34
2023-01-03T05:54:26.856Z,0.37
2023-01-03T05:56:54.477Z,0.36
2023-01-03T05:59:22.865Z,0.25
2023-01-03T06:01:50.817Z,0.16
2023-01-03T06:04:18.754Z,0.17
2023-01-03T06:06:48.336Z,0.20
2023-01-03T06:09:16.402Z,0.11
2023-01-03T06:11:44.349Z,0.12
2023-01-03T06:14:11.834Z,0.11
2023-01-03T06:16:58.188Z,0.05
2023-01-03T06:19:25.869Z,-0.01
2023-01-03T06:21:53.433Z,0.00
2023-01-03T06:24:20.997Z,-0.03
2023-01-03T06:26:48.515Z,-0.05
2023-01-03T06:29:16.190Z,-0.10
2023-01-03T06:31:43.732Z,-0.22
2023-01-03T06:34:11.297Z,-0.23
2023-01-03T06:36:38.845Z,-0.20
2023-01-03T06:39:06.367Z,-0.17
2023-01-03T06:41:33.904Z,-0.15
2023-01-03T06:44:01.473Z,-0.09
2023-01-03T06:46:47.606Z,-0.07
2023-01-03T06:49:36.247Z,0.06
2023-01-03T06:52:32.327Z,0.22
2023-01-03T06:54:59.977Z,0.31
2023-01-03T06:57:27.654Z,0.29
2023-01-03T06:59:55.919Z,0.29
2023-01-03T07:02:23.678Z,0.34
2023-01-03T07:04:51.289Z,0.31
2023-01-03T07:07:18.996Z,0.41
2023-01-03T07:09:46.425Z,0.42
2023-01-03T07:12:32.472Z,0.48
2023-01-03T07:15:00.041Z,0.52
2023-01-03T07:17:27.556Z,0.54
2023-01-03T07:19:55.119Z,0.53
2023-01-03T07:22:22.646Z,0.53
2023-01-03T07:24:50.242Z,0.55
2023-01-03T07:27:17.705Z,0.60
2023-01-03T07:29:46.679Z,0.63
2023-01-03T07:32:14.206Z,0.62
2023-01-03T07:34:41.698Z,0.56
2023-01-03T07:37:09.253Z,0.58
2023-01-03T07:39:36.751Z,0.59
2023-01-03T07:42:22.944Z,0.60
2023-01-03T07:44:50.552Z,0.61
2023-01-03T07:47:18.024Z,0.65
2023-01-03T07:49:45.615Z,0.60
2023-01-03T07:52:13.094Z,0.60
2023-01-03T07:54:40.679Z,0.53
2023-01-03T07:57:08.267Z,0.45
2023-01-03T07:59:35.954Z,0.43
2023-01-03T08:02:03.635Z,0.43
2023-01-03T08:04:31.450Z,0.42
2023-01-03T08:06:58.924Z,0.43
2023-01-03T08:09:45.321Z,0.37
2023-01-03T08:12:31.290Z,0.43
2023-01-03T08:14:58.862Z,0.46
2023-01-03T08:17:27.304Z,0.46
2023-01-03T08:19:54.883Z,0.42
2023-01-03T08:22:22.381Z,0.43
2023-01-03T08:24:49.954Z,0.43
2023-01-03T08:27:17.386Z,0.44
2023-01-03T08:29:46.764Z,0.55
2023-01-03T08:32:14.865Z,0.54
2023-01-03T08:34:44.513Z,0.61
2023-01-03T08:37:13.938Z,0.62
2023-01-03T08:39:51.576Z,0.62
2023-01-03T08:42:21.255Z,0.79
2023-01-03T08:44:49.884Z,0.71
2023-01-03T08:47:17.840Z,0.72
2023-01-03T08:49:45.413Z,0.69
2023-01-03T08:52:12.993Z,0.65
2023-01-03T08:54:40.563Z,0.67
2023-01-03T08:57:08.116Z,0.67
2023-01-03T08:59:35.712Z,0.72
2023-01-03T09:02:03.780Z,0.82
2023-01-03T09:04:32.859Z,0.76
2023-01-03T09:07:00.554Z,0.78
2023-01-03T09:09:28.015Z,0.75
2023-01-03T09:11:55.561Z,0.75
2023-01-03T09:14:23.111Z,0.83
2023-01-03T09:16:50.766Z,0.89
2023-01-03T09:19:18.347Z,0.95
2023-01-03T09:21:46.030Z,0.99
2023-01-03T09:24:13.519Z,0.96
2023-01-03T09:26:41.094Z,0.98
2023-01-03T09:29:08.520Z,1.00
2023-01-03T09:31:39.961Z,0.95
2023-01-03T09:34:07.972Z,0.99
2023-01-03T09:36:38.446Z,1.02
2023-01-03T09:39:06.590Z,1.02
2023-01-03T09:41:34.195Z,1.04
2023-01-03T09:44:08.072Z,1.09
2023-01-03T09:46:37.136Z,1.08
2023-01-03T09:49:07.208Z,1.00
2023-01-03T09:52:01.120Z,0.96
2023-01-03T09:54:53.341Z,0.93
2023-01-03T09:57:59.452Z,1.01
2023-01-03T10:00:51.523Z,1.02
2023-01-03T10:03:51.437Z,1.17
2023-01-03T10:06:54.388Z,1.27
2023-01-03T10:09:24.700Z,1.20
2023-01-03T10:12:12.670Z,1.25
2023-01-03T10:14:55.295Z,1.28
2023-01-03T10:17:51.508Z,1.44
2023-01-03T10:20:49.322Z,1.45
2023-01-03T10:23:18.491Z,1.38
2023-01-03T10:25:47.162Z,1.36
2023-01-03T10:28:23.461Z,1.38
2023-01-03T10:31:12.742Z,1.44
2023-01-03T10:33:46.961Z,1.57
2023-01-03T10:36:20.060Z,1.61
2023-01-03T10:38:52.914Z,1.73
2023-01-03T10:41:33.155Z,1.70
2023-01-03T10:44:03.633Z,1.79
2023-01-03T10:46:31.769Z,1.73
2023-01-03T10:49:29.503Z,1.88
2023-01-03T10:52:12.504Z,1.88
2023-01-03T10:55:01.264Z,2.02
2023-01-03T10:57:39.723Z,2.07
2023-01-03T11:00:22.539Z,2.12
2023-01-03T11:02:51.385Z,2.11
2023-01-03T11:05:22.729Z,2.12
2023-01-03T11:07:59.981Z,2.24
2023-01-03T11:10:56.621Z,2.34
2023-01-03T11:13:33.362Z,2.38
2023-01-03T11:16:03.552Z,2.39
2023-01-03T11:18:31.787Z,2.47
2023-01-03T11:21:02.280Z,2.56
2023-01-03T11:24:06.952Z,2.73
2023-01-03T11:27:03.801Z,2.74
2023-01-03T11:29:45.004Z,2.92
2023-01-03T11:32:42.000Z,2.96
2023-01-03T11:35:32.231Z,2.98
2023-01-03T11:38:02.966Z,3.04
2023-01-03T11:41:03.876Z,3.13
2023-01-03T11:43:49.778Z,3.08
2023-01-03T11:46:35.775Z,3.13
2023-01-03T11:49:44.647Z,3.23
2023-01-03T11:52:17.976Z,3.28
2023-01-03T11:54:57.361Z,3.29
2023-01-03T11:57:30.504Z,3.29
2023-01-03T12:00:30.476Z,3.41
2023-01-03T12:03:14.271Z,3.36
2023-01-03T12:05:48.030Z,3.38
2023-01-03T12:08:34.120Z,3.47
2023-01-03T12:11:26.640Z,3.41
2023-01-03T12:14:03.184Z,3.40
2023-01-03T12:16:40.085Z,3.46
2023-01-03T12:19:19.615Z,3.49
2023-01-03T12:22:05.250Z,3.50
2023-01-03T12:25:04.394Z,3.48
2023-01-03T12:28:15.108Z,3.61
2023-01-03T12:31:03.748Z,3.59
2023-01-03T12:33:45.624Z,3.59
2023-01-03T12:36:53.228Z,3.69
2023-01-03T12:39:33.741Z,3.63
2023-01-03T12:42:29.276Z,3.67
2023-01-03T12:45:09.421Z,3.69
2023-01-03T12:47:47.103Z,3.69
2023-01-03T12:50:21.613Z,3.71
2023-01-03T12:53:06.621Z,3.79
2023-01-03T12:55:34.051Z,3.77
2023-01-03T12:58:26.819Z,3.86
2023-01-03T13:01:10.126Z,3.85
2023-01-03T13:03:52.874Z,3.81
2023-01-03T13:06:40.226Z,3.92
2023-01-03T13:09:23.889Z,3.97
2023-01-03T13:11:55.151Z,3.97
2023-01-03T13:14:28.442Z,4.01
2023-01-03T13:17:05.063Z,4.01
2023-01-03T13:19:35.398Z,4.05
2023-01-03T13:22:06.073Z,4.04
2023-01-03T13:24:53.540Z,4.09
2023-01-03T13:27:33.819Z,4.10
2023-01-03T13:30:01.331Z,4.18
2023-01-03T13:32:37.920Z,4.20
2023-01-03T13:35:05.965Z,4.26
2023-01-03T13:37:48.578Z,4.33
2023-01-03T13:40:51.958Z,4.37
2023-01-03T13:43:22.612Z,4.35
2023-01-03T13:45:53.378Z,4.39
2023-01-03T13:48:26.859Z,4.45
2023-01-03T13:51:14.378Z,4.53
2023-01-03T13:54:00.800Z,4.56
2023-01-03T13:56:52.918Z,4.50
2023-01-03T13:59:53.197Z,4.58
2023-01-03T14:02:46.823Z,4.55
2023-01-03T14:05:38.829Z,4.60
2023-01-03T14:08:41.714Z,4.65
2023-01-03T14:11:41.185Z,4.67
2023-01-03T14:14:16.750Z,4.64
2023-01-03T14:16:48.588Z,4.62
2023-01-03T14:19:24.687Z,4.63
2023-01-03T14:22:30.275Z,4.74
2023-01-03T14:24:59.892Z,4.66
2023-01-03T14:27:40.710Z,4.67
2023-01-03T14:30:29.730Z,4.66
2023-01-03T14:32:58.545Z,4.60
2023-01-03T14:35:36.047Z,4.67
2023-01-03T14:38:07.033Z,4.66
2023-01-03T14:40:35.058Z,4.69
2023-01-03T14:43:05.427Z,4.72
2023-01-03T14:45:33.064Z,4.71
2023-01-03T14:48:00.548Z,4.72
2023-01-03T14:50:30.315Z,4.76
2023-01-03T14:53:00.435Z,4.77
2023-01-03T14:55:32.693Z,4.80
2023-01-03T14:58:05.057Z,4.75
2023-01-03T15:00:36.301Z,4.80
2023-01-03T15:03:04.838Z,4.81
2023-01-03T15:05:34.003Z,4.84
2023-01-03T15:08:09.492Z,4.86
2023-01-03T15:10:45.369Z,4.91
2023-01-03T15:13:45.754Z,4.96
2023-01-03T15:16:35.574Z,4.97
2023-01-03T15:19:20.385Z,4.95
2023-01-03T15:21:47.980Z,4.94
2023-01-03T15:24:18.881Z,4.87
2023-01-03T15:26:48.819Z,4.89
2023-01-03T15:29:19.506Z,4.90
2023-01-03T15:31:54.081Z,4.96
2023-01-03T15:34:30.392Z,4.97
2023-01-03T15:37:21.963Z,4.93
2023-01-03T15:39:52.534Z,4.93
2023-01-03T15:42:54.516Z,4.91
2023-01-03T15:45:39.190Z,4.97
2023-01-03T15:48:14.084Z,4.84
2023-01-03T15:50:52.943Z,4.95
2023-01-03T15:53:37.954Z,4.97
2023-01-03T15:56:19.767Z,4.99
2023-01-03T15:58:53.555Z,4.97
2023-01-03T16:01:22.857Z,4.95
2023-01-03T16:03:52.169Z,4.97
2023-01-03T16:06:20.010Z,5.01
2023-01-03T16:08:47.599Z,5.01
2023-01-03T16:11:20.768Z,4.95
2023-01-03T16:13:56.625Z,4.91
2023-01-03T16:16:39.920Z,4.95
2023-01-03T16:19:17.653Z,4.94
2023-01-03T16:22:02.456Z,4.92
2023-01-03T16:24:33.149Z,4.87
2023-01-03T16:27:12.340Z,4.88
2023-01-03T16:29:39.842Z,4.86
2023-01-03T16:32:11.501Z,4.78
2023-01-03T16:34:38.955Z,4.79
2023-01-03T16:37:10.036Z,4.78
2023-01-03T16:39:41.113Z,4.76
2023-01-03T16:42:13.285Z,4.81
2023-01-03T16:44:43.142Z,4.79
2023-01-03T16:47:18.954Z,4.79
2023-01-03T16:49:53.495Z,4.78
2023-01-03T16:52:26.324Z,4.77
2023-01-03T16:54:54.676Z,4.68
2023-01-03T16:57:22.975Z,4.69
2023-01-03T16:59:50.502Z,4.63
2023-01-03T17:03:14.567Z,4.62
2023-01-03T17:05:42.246Z,4.54
2023-01-03T17:08:12.475Z,4.55
2023-01-03T17:10:41.895Z,4.48
2023-01-03T17:13:28.213Z,4.53
2023-01-03T17:15:56.935Z,4.54
2023-01-03T17:18:27.218Z,4.52
2023-01-03T17:21:01.562Z,4.54
2023-01-03T17:23:32.500Z,4.54
2023-01-03T17:26:00.136Z,4.59
2023-01-03T17:28:27.640Z,4.53
2023-01-03T17:30:56.847Z,4.58
2023-01-03T17:33:30.404Z,4.56
2023-01-03T17:36:01.444Z,4.58
2023-01-03T17:38:31.993Z,4.54
2023-01-03T17:41:00.030Z,4.52
2023-01-03T17:43:27.760Z,4.47
2023-01-03T17:46:22.551Z,4.50
2023-01-03T17:49:09.679Z,4.45
2023-01-03T17:51:37.450Z,4.43
2023-01-03T17:54:09.745Z,4.43
2023-01-03T17:56:37.440Z,4.40
2023-01-03T17:59:04.970Z,4.35
2023-01-03T18:01:32.588Z,4.35
2023-01-03T18:04:00.181Z,4.30
2023-01-03T18:06:27.686Z,4.31
2023-01-03T18:08:56.620Z,4.35
2023-01-03T18:11:27.114Z,4.38
2023-01-03T18:13:54.619Z,4.40
2023-01-03T18:16:23.587Z,4.42
2023-01-03T18:18:51.108Z,4.34
2023-01-03T18:21:27.976Z,4.36
2023-01-03T18:23:59.192Z,4.34
2023-01-03T18:26:38.461Z,4.44
2023-01-03T18:29:06.754Z,4.34
2023-01-03T18:31:34.288Z,4.29
2023-01-03T18:34:04.601Z,4.26
2023-01-03T18:36:38.924Z,4.37
2023-01-03T18:39:12.186Z,4.35
2023-01-03T18:41:40.552Z,4.31
2023-01-03T18:44:21.358Z,4.39
2023-01-03T18:46:52.445Z,4.30
2023-01-03T18:49:20.060Z,4.33
2023-01-03T18:51:52.293Z,4.24
2023-01-03T18:54:20.235Z,4.20
2023-01-03T18:56:47.923Z,4.28
2023-01-03T18:59:22.528Z,4.26
2023-01-03T19:01:50.149Z,4.21
2023-01-03T19:04:18.046Z,4.26
2023-01-03T19:06:47.667Z,4.21
2023-01-03T19:09:33.156Z,4.17
2023-01-03T19:12:01.244Z,4.31
2023-01-03T19:14:28.749Z,4.25
2023-01-03T19:16:56.528Z,4.18
2023-01-03T19:19:24.055Z,4.08
2023-01-03T19:21:51.585Z,4.07
2023-01-03T19:24:38.126Z,4.08
2023-01-03T19:27:06.527Z,4.03
2023-01-03T19:29:37.200Z,4.00
2023-01-03T19:32:10.854Z,3.96
2023-01-03T19:34:38.320Z,3.97
2023-01-03T19:37:05.901Z,3.95
2023-01-03T19:39:37.408Z,3.92
2023-01-03T19:42:30.862Z,3.92
2023-01-03T19:45:00.471Z,3.93
2023-01-03T19:47:28.476Z,3.89
2023-01-03T19:49:57.447Z,3.86
2023-01-03T19:52:25.013Z,3.79
2023-01-03T19:54:52.512Z,3.79
2023-01-03T19:57:27.428Z,3.81
2023-01-03T19:59:58.505Z,3.79
2023-01-03T20:02:44.574Z,3.80
2023-01-03T20:05:20.022Z,3.75
2023-01-03T20:07:48.573Z,3.78
2023-01-03T20:10:26.602Z,3.85
2023-01-03T20:12:56.173Z,3.77
2023-01-03T20:15:36.679Z,3.80
2023-01-03T20:18:06.990Z,3.84
2023-01-03T20:20:35.188Z,3.85
2023-01-03T20:23:07.842Z,3.89
2023-01-03T20:25:37.415Z,3.89
2023-01-03T20:28:06.032Z,3.91
2023-01-03T20:30:34.539Z,3.87
2023-01-03T20:33:02.364Z,3.88
2023-01-03T20:38:24.968Z,3.83
2023-01-03T20:40:56.718Z,3.90
2023-01-03T20:43:24.507Z,3.82
2023-01-03T20:45:57.784Z,3.78
2023-01-03T20:48:26.656Z,3.76
2023-01-03T20:50:55.288Z,3.67
2023-01-03T20:53:25.486Z,3.69
2023-01-03T20:55:54.087Z,3.68
2023-01-03T20:58:25.649Z,3.59
2023-01-03T21:00:59.952Z,3.58
2023-01-03T21:03:32.900Z,3.60
2023-01-03T21:06:00.509Z,3.63
2023-01-03T21:08:46.520Z,3.65
2023-01-03T21:11:14.089Z,3.66
2023-01-03T21:13:42.370Z,3.68
2023-01-03T21:16:33.129Z,3.69
2023-01-03T21:19:18.939Z,3.61
2023-01-03T21:21:49.361Z,3.59
2023-01-03T21:24:18.809Z,3.56
2023-01-03T21:26:46.351Z,3.55
2023-01-03T21:29:16.566Z,3.47
2023-01-03T21:31:44.233Z,3.51
2023-01-03T21:34:18.325Z,3.46
2023-01-03T21:36:46.053Z,3.40
2023-01-03T21:39:13.791Z,3.35
2023-01-03T21:42:02.997Z,3.37
2023-01-03T21:44:30.533Z,3.33
2023-01-03T21:46:57.977Z,3.37
2023-01-03T21:49:25.404Z,3.32
2023-01-03T21:51:52.883Z,3.27
2023-01-03T21:54:20.430Z,3.26
2023-01-03T21:56:47.961Z,3.24
2023-01-03T21:59:16.367Z,3.23
2023-01-03T22:02:03.799Z,3.19
2023-01-03T22:04:32.193Z,3.15
2023-01-03T22:07:02.757Z,3.11
2023-01-03T22:09:50.105Z,3.10
2023-01-03T22:12:19.468Z,3.06
2023-01-03T22:14:47.355Z,2.94
2023-01-03T22:17:15.681Z,2.94
2023-01-03T22:19:43.307Z,2.89
2023-01-03T22:22:11.069Z,2.91
2023-01-03T22:24:38.555Z,2.88
2023-01-03T22:27:06.498Z,2.89
2023-01-03T22:29:34.467Z,2.88
2023-01-03T22:32:02.047Z,2.85
2023-01-03T22:34:29.657Z,2.84
2023-01-03T22:36:57.240Z,2.87
2023-01-03T22:39:25.105Z,2.78
2023-01-03T22:41:52.569Z,2.77
2023-01-03T22:44:20.047Z,2.69
2023-01-03T22:46:47.744Z,2.66
2023-01-03T22:49:15.241Z,2.60
2023-01-03T22:51:42.675Z,2.61
2023-01-03T22:54:10.265Z,2.64
2023-01-03T22:56:37.725Z,2.68
2023-01-03T22:59:05.383Z,2.66
2023-01-03T23:01:32.879Z,2.64
2023-01-03T23:04:01.253Z,2.67
2023-01-03T23:06:32.035Z,2.70
2023-01-03T23:09:01.347Z,2.73
2023-01-03T23:11:49.583Z,2.76
2023-01-03T23:14:19.488Z,2.71
2023-01-03T23:16:48.128Z,2.66
2023-01-03T23:19:17.525Z,2.63
2023-01-03T23:21:45.634Z,2.57
2023-01-03T23:24:15.972Z,2.60
2023-01-03T23:26:46.080Z,2.59
2023-01-03T23:29:15.088Z,2.58
2023-01-03T23:31:43.203Z,2.60
2023-01-03T23:34:13.168Z,2.57
2023-01-03T23:36:43.407Z,2.56
2023-01-03T23:39:13.774Z,2.54
2023-01-03T23:41:41.396Z,2.46
2023-01-03T23:44:09.293Z,2.47
2023-01-03T23:46:36.867Z,2.46
2023-01-03T23:49:06.564Z,2.49
2023-01-03T23:51:34.032Z,2.49
2023-01-03T23:54:01.535Z,2.51
2023-01-03T23:56:29.001Z,2.47
2023-01-03T23:58:56.521Z,2.50
